createdAt,value
2023-03-27T00:01:57.378Z,6.80
2023-03-27T00:04:26.474Z,6.90
2023-03-27T00:06:56.134Z,5.70
2023-03-27T00:09:24.360Z,8.50
2023-03-27T00:12:03.828Z,6.60
2023-03-27T00:14:34.898Z,5.70
2023-03-27T00:17:04.210Z,4.70
2023-03-27T00:19:52.446Z,6.80
2023-03-27T00:22:21.680Z,5.60
2023-03-27T00:24:51.051Z,5.70
2023-03-27T00:27:22.091Z,4.30
2023-03-27T00:29:50.664Z,4.90
2023-03-27T00:32:18.957Z,4.30
2023-03-27T00:34:47.332Z,5.90
2023-03-27T00:37:16.549Z,3.70
2023-03-27T00:39:50.265Z,6.30
2023-03-27T00:42:23.127Z,5.60
2023-03-27T00:44:53.041Z,5.00
2023-03-27T00:47:36.089Z,5.60
2023-03-27T00:50:09.160Z,5.20
2023-03-27T00:52:39.487Z,3.90
2023-03-27T00:55:11.005Z,3.90
2023-03-27T00:57:42.076Z,6.80
2023-03-27T01:00:13.882Z,6.80
2023-03-27T01:02:48.036Z,6.20
2023-03-27T01:05:17.407Z,6.80
2023-03-27T01:08:00.791Z,7.30
2023-03-27T01:10:57.601Z,5.30
2023-03-27T01:14:07.703Z,5.60
2023-03-27T01:16:41.091Z,8.50
2023-03-27T01:19:47.491Z,5.90
2023-03-27T01:22:42.827Z,6.10
2023-03-27T01:25:30.772Z,8.00
2023-03-27T01:28:03.010Z,8.00
2023-03-27T01:33:51.551Z,6.40
2023-03-27T01:36:32.129Z,5.00
2023-03-27T01:39:13.531Z,5.00
2023-03-27T01:41:42.254Z,5.10
2023-03-27T01:44:19.799Z,4.50
2023-03-27T01:46:56.740Z,3.50
2023-03-27T01:49:31.269Z,4.60
2023-03-27T01:52:02.253Z,5.00
2023-03-27T01:54:35.440Z,8.60
2023-03-27T01:57:20.421Z,3.90
2023-03-27T01:59:53.985Z,4.20
2023-03-27T02:02:26.969Z,3.90
2023-03-27T02:05:15.619Z,5.20
2023-03-27T02:07:51.644Z,4.80
2023-03-27T02:10:23.583Z,4.90
2023-03-27T02:12:58.717Z,6.10
2023-03-27T02:15:31.971Z,5.70
2023-03-27T02:18:05.416Z,5.00
2023-03-27T02:20:34.494Z,5.30
2023-03-27T02:23:03.292Z,4.70
2023-03-27T02:25:39.089Z,6.20
2023-03-27T02:28:21.157Z,5.70
2023-03-27T02:31:06.811Z,6.60
2023-03-27T02:33:51.462Z,5.60
2023-03-27T02:36:29.978Z,10.10
2023-03-27T02:39:02.326Z,6.10
2023-03-27T02:41:37.763Z,9.40
2023-03-27T02:44:51.787Z,4.20
2023-03-27T02:47:24.088Z,4.30
2023-03-27T02:49:54.112Z,3.90
2023-03-27T02:52:29.692Z,7.60
2023-03-27T02:55:06.869Z,4.60
2023-03-27T02:57:40.193Z,4.60
2023-03-27T03:00:28.083Z,4.30
2023-03-27T03:03:28.339Z,3.50
2023-03-27T03:06:11.486Z,4.20
2023-03-27T03:08:41.269Z,4.80
2023-03-27T03:11:12.175Z,4.60
2023-03-27T03:13:43.450Z,3.40
2023-03-27T03:16:12.086Z,5.30
2023-03-27T03:18:41.495Z,3.40
2023-03-27T03:21:12.245Z,5.80
2023-03-27T03:23:41.758Z,9.50
2023-03-27T03:26:32.344Z,13.70
2023-03-27T03:29:01.830Z,12.10
2023-03-27T03:31:43.607Z,8.60
2023-03-27T03:34:16.911Z,6.60
2023-03-27T03:36:49.843Z,4.90
2023-03-27T03:39:25.144Z,4.00
2023-03-27T03:41:55.691Z,4.60
2023-03-27T03:44:24.219Z,6.20
2023-03-27T03:46:52.646Z,14.50
2023-03-27T03:49:23.166Z,17.20
2023-03-27T03:52:03.940Z,14.50
2023-03-27T03:54:34.092Z,12.80
2023-03-27T03:57:03.463Z,9.50
2023-03-27T03:59:34.152Z,6.60
2023-03-27T04:02:31.442Z,6.50
2023-03-27T04:05:11.853Z,7.80
2023-03-27T04:07:41.281Z,6.70
2023-03-27T04:10:32.759Z,6.10
2023-03-27T04:13:04.218Z,7.40
2023-03-27T04:15:37.137Z,7.30
2023-03-27T04:18:08.413Z,7.30
2023-03-27T04:20:37.648Z,6.80
2023-03-27T04:23:08.492Z,4.50
2023-03-27T04:25:40.425Z,7.00
2023-03-27T04:28:10.478Z,13.20
2023-03-27T04:30:44.891Z,16.90
2023-03-27T04:33:23.311Z,21.20
2023-03-27T04:36:06.397Z,16.90
2023-03-27T04:39:03.834Z,17.20
2023-03-27T04:41:38.786Z,15.80
2023-03-27T04:44:07.295Z,14.40
2023-03-27T04:46:36.482Z,8.50
2023-03-27T04:49:09.384Z,7.90
2023-03-27T04:51:53.250Z,5.40
2023-03-27T04:54:25.031Z,4.50
2023-03-27T04:58:09.509Z,2.90
2023-03-27T05:00:40.518Z,3.70
2023-03-27T05:03:40.068Z,3.20
2023-03-27T05:06:12.211Z,30.30
2023-03-27T05:08:41.090Z,5.70
2023-03-27T05:11:14.379Z,5.10
2023-03-27T05:13:45.653Z,4.50
2023-03-27T05:16:14.091Z,4.60
2023-03-27T05:18:44.849Z,4.60
2023-03-27T05:21:15.424Z,2.90
2023-03-27T05:23:42.834Z,2.50
2023-03-27T05:26:10.136Z,2.10
2023-03-27T05:28:53.814Z,2.80
2023-03-27T05:31:21.932Z,2.20
2023-03-27T05:33:58.982Z,3.00
2023-03-27T05:36:29.393Z,2.50
2023-03-27T05:38:57.486Z,2.40
2023-03-27T05:44:08.773Z,4.10
2023-03-27T05:46:40.699Z,1.90
2023-03-27T05:49:13.461Z,2.30
2023-03-27T05:51:47.143Z,2.50
2023-03-27T05:54:20.338Z,2.40
2023-03-27T05:56:52.863Z,2.80
2023-03-27T05:59:21.089Z,2.40
2023-03-27T06:01:48.972Z,2.30
2023-03-27T06:04:21.661Z,2.50
2023-03-27T06:07:04.050Z,2.90
2023-03-27T06:09:32.355Z,3.00
2023-03-27T06:12:23.649Z,4.00
2023-03-27T06:15:11.177Z,4.00
2023-03-27T06:17:48.343Z,3.80
2023-03-27T06:20:17.011Z,3.70
2023-03-27T06:22:56.804Z,2.70
2023-03-27T06:25:34.650Z,4.40
2023-03-27T06:28:07.267Z,3.20
2023-03-27T06:30:41.166Z,4.20
2023-03-27T06:33:42.766Z,3.50
2023-03-27T06:36:21.518Z,2.70
2023-03-27T06:38:52.170Z,2.30
2023-03-27T06:41:20.392Z,2.30
2023-03-27T06:44:10.316Z,2.60
2023-03-27T06:47:02.283Z,2.20
2023-03-27T06:49:52.780Z,6.30
2023-03-27T06:52:24.107Z,2.40
2023-03-27T06:54:56.895Z,2.70
2023-03-27T06:57:28.182Z,2.50
2023-03-27T07:00:01.648Z,2.40
2023-03-27T07:02:50.349Z,2.70
2023-03-27T07:05:39.188Z,2.50
2023-03-27T07:08:22.365Z,2.50
2023-03-27T07:13:25.833Z,2.50
2023-03-27T07:15:55.216Z,2.20
2023-03-27T07:18:25.186Z,3.40
2023-03-27T07:20:56.003Z,2.70
2023-03-27T07:23:25.703Z,2.40
2023-03-27T07:25:58.905Z,3.00
2023-03-27T07:28:44.686Z,4.40
2023-03-27T07:31:31.496Z,2.40
2023-03-27T07:34:03.608Z,2.40
2023-03-27T07:37:03.087Z,4.10
2023-03-27T07:39:34.257Z,4.80
2023-03-27T07:42:03.429Z,3.00
2023-03-27T07:44:43.170Z,3.20
2023-03-27T07:47:12.675Z,2.90
2023-03-27T07:49:42.297Z,2.40
2023-03-27T07:52:16.606Z,2.20
2023-03-27T07:54:57.204Z,2.00
2023-03-27T07:57:33.061Z,2.50
2023-03-27T08:00:11.788Z,4.40
2023-03-27T08:02:51.493Z,3.80
2023-03-27T08:05:19.844Z,2.70
2023-03-27T08:07:56.001Z,2.50
2023-03-27T08:10:43.155Z,1.90
2023-03-27T08:13:13.188Z,3.10
2023-03-27T08:15:41.611Z,2.40
2023-03-27T08:18:20.582Z,3.10
2023-03-27T08:20:50.118Z,2.30
2023-03-27T08:23:18.281Z,6.80
2023-03-27T08:26:26.894Z,3.60
2023-03-27T08:29:00.704Z,2.90
2023-03-27T08:31:31.597Z,3.70
2023-03-27T08:34:02.120Z,3.00
2023-03-27T08:36:52.869Z,2.50
2023-03-27T08:39:23.039Z,2.50
2023-03-27T08:42:01.613Z,2.20
2023-03-27T08:44:33.583Z,3.30
2023-03-27T08:47:17.423Z,2.70
2023-03-27T08:49:58.304Z,3.60
2023-03-27T08:52:32.200Z,1.40
2023-03-27T08:55:19.041Z,3.00
2023-03-27T08:58:12.318Z,2.90
2023-03-27T09:00:42.726Z,1.60
2023-03-27T09:05:59.306Z,3.00
2023-03-27T09:08:41.082Z,2.50
2023-03-27T09:11:16.132Z,3.80
2023-03-27T09:13:52.138Z,2.40
2023-03-27T09:16:23.531Z,3.20
2023-03-27T09:19:04.229Z,4.90
2023-03-27T09:22:06.031Z,3.60
2023-03-27T09:24:57.009Z,4.00
2023-03-27T09:27:33.808Z,3.80
2023-03-27T09:30:29.339Z,3.40
2023-03-27T09:33:04.017Z,2.90
2023-03-27T09:35:33.391Z,4.40
2023-03-27T09:38:04.193Z,3.10
2023-03-27T09:40:54.969Z,3.30
2023-03-27T09:43:41.816Z,2.60
2023-03-27T09:46:11.645Z,3.30
2023-03-27T09:48:58.430Z,3.10
2023-03-27T09:51:42.687Z,2.90
2023-03-27T09:54:18.493Z,2.80
2023-03-27T09:56:48.831Z,3.70
2023-03-27T09:59:33.305Z,2.00
2023-03-27T10:02:22.490Z,2.00
2023-03-27T10:05:17.512Z,2.90
2023-03-27T10:07:48.442Z,2.70
2023-03-27T10:10:20.052Z,2.10
2023-03-27T10:21:12.351Z,1.60
2023-03-27T10:23:46.448Z,2.40
2023-03-27T10:26:27.310Z,1.90
2023-03-27T10:28:59.562Z,2.00
2023-03-27T10:31:38.486Z,4.10
2023-03-27T10:34:29.092Z,1.90
2023-03-27T10:37:28.799Z,3.20
2023-03-27T10:40:17.445Z,1.40
2023-03-27T10:42:46.814Z,2.10
2023-03-27T10:45:16.926Z,3.70
2023-03-27T10:47:47.578Z,2.40
2023-03-27T10:50:53.382Z,4.90
2023-03-27T10:53:43.068Z,2.30
2023-03-27T10:56:39.594Z,2.00
2023-03-27T10:59:16.869Z,3.00
2023-03-27T11:01:56.255Z,3.30
2023-03-27T11:04:45.273Z,2.50
2023-03-27T11:07:38.047Z,2.40
2023-03-27T11:10:25.388Z,2.90
2023-03-27T11:13:04.792Z,4.10
2023-03-27T11:15:39.783Z,2.70
2023-03-27T11:18:28.873Z,3.70
2023-03-27T11:21:23.299Z,5.00
2023-03-27T11:24:01.810Z,3.00
2023-03-27T11:26:38.360Z,3.80
2023-03-27T11:29:21.312Z,5.80
2023-03-27T11:31:53.116Z,2.70
2023-03-27T11:34:54.519Z,2.00
2023-03-27T11:37:43.178Z,2.00
2023-03-27T11:40:20.492Z,2.30
2023-03-27T11:42:51.745Z,2.40
2023-03-27T11:45:27.772Z,4.20
2023-03-27T11:48:25.835Z,5.30
2023-03-27T11:51:13.053Z,5.20
2023-03-27T11:54:12.165Z,3.50
2023-03-27T11:57:02.561Z,5.80
2023-03-27T12:00:16.500Z,5.40
2023-03-27T12:03:07.044Z,5.20
2023-03-27T12:05:55.451Z,7.50
2023-03-27T12:09:10.222Z,2.60
2023-03-27T12:12:00.551Z,3.30
2023-03-27T12:14:40.976Z,3.10
2023-03-27T12:17:24.229Z,2.70
2023-03-27T12:20:09.593Z,6.80
2023-03-27T12:22:44.026Z,4.10
2023-03-27T12:25:38.806Z,3.50
2023-03-27T12:29:23.592Z,5.40
2023-03-27T12:32:32.152Z,5.20
2023-03-27T12:35:06.589Z,3.80
2023-03-27T12:37:45.041Z,4.60
2023-03-27T12:40:40.680Z,6.10
2023-03-27T12:43:21.128Z,4.00
2023-03-27T12:46:07.496Z,6.10
2023-03-27T12:48:56.296Z,4.00
2023-03-27T12:51:44.030Z,3.70
2023-03-27T12:54:22.019Z,4.10
2023-03-27T12:57:11.090Z,3.80
2023-03-27T12:59:50.873Z,2.40
2023-03-27T13:02:34.986Z,6.10
2023-03-27T13:05:24.193Z,6.00
2023-03-27T13:08:15.886Z,2.20
2023-03-27T13:11:50.268Z,2.90
2023-03-27T13:14:30.828Z,2.20
2023-03-27T13:17:36.869Z,1.60
2023-03-27T13:21:00.146Z,3.30
2023-03-27T13:23:50.110Z,4.60
2023-03-27T13:26:45.315Z,3.20
2023-03-27T13:29:24.567Z,4.10
2023-03-27T13:32:26.405Z,4.50
2023-03-27T13:35:22.081Z,7.00
2023-03-27T13:37:51.951Z,5.30
2023-03-27T13:40:35.455Z,4.50
2023-03-27T13:43:28.480Z,5.30
2023-03-27T13:46:19.344Z,4.70
2023-03-27T13:49:32.682Z,4.00
2023-03-27T13:52:44.521Z,4.60
2023-03-27T13:55:36.955Z,4.60
2023-03-27T13:58:59.401Z,2.50
2023-03-27T14:01:42.594Z,2.50
2023-03-27T14:04:23.508Z,3.70
2023-03-27T14:07:39.289Z,3.30
2023-03-27T14:10:23.311Z,3.20
2023-03-27T14:13:41.664Z,2.20
2023-03-27T14:16:30.123Z,4.10
2023-03-27T14:19:23.375Z,2.60
2023-03-27T14:21:56.299Z,3.10
2023-03-27T14:24:36.109Z,3.00
2023-03-27T14:27:14.356Z,1.90
2023-03-27T14:29:45.239Z,3.10
2023-03-27T14:32:17.615Z,6.00
2023-03-27T14:35:04.660Z,4.30
2023-03-27T14:37:45.150Z,2.60
2023-03-27T14:40:43.017Z,2.00
2023-03-27T14:43:13.826Z,3.60
2023-03-27T14:45:43.455Z,3.10
2023-03-27T14:48:34.747Z,2.20
2023-03-27T14:51:07.707Z,6.70
2023-03-27T14:53:44.342Z,3.70
2023-03-27T14:56:28.120Z,2.60
2023-03-27T14:59:02.274Z,6.30
2023-03-27T15:01:41.531Z,3.70
2023-03-27T15:04:11.739Z,3.50
2023-03-27T15:06:41.687Z,5.20
2023-03-27T15:09:19.478Z,8.00
2023-03-27T15:12:23.467Z,3.30
2023-03-27T15:14:59.420Z,3.70
2023-03-27T15:17:29.088Z,4.70
2023-03-27T15:20:10.449Z,6.30
2023-03-27T15:22:42.143Z,6.80
2023-03-27T15:25:19.684Z,8.30
2023-03-27T15:27:53.025Z,6.60
2023-03-27T15:30:27.254Z,7.30
2023-03-27T15:32:56.859Z,5.00
2023-03-27T15:35:34.557Z,8.90
2023-03-27T15:38:04.547Z,6.20
2023-03-27T15:40:43.230Z,8.30
2023-03-27T15:43:14.583Z,8.70
2023-03-27T15:45:52.378Z,6.80
2023-03-27T15:48:23.248Z,9.60
2023-03-27T15:51:04.809Z,8.50
2023-03-27T15:53:41.533Z,7.10
2023-03-27T15:56:35.004Z,5.90
2023-03-27T15:59:05.726Z,5.80
2023-03-27T16:01:34.847Z,5.30
2023-03-27T16:04:08.983Z,7.00
2023-03-27T16:06:40.942Z,6.30
2023-03-27T16:09:38.702Z,7.70
2023-03-27T16:12:10.490Z,5.00
2023-03-27T16:19:18.432Z,6.10
2023-03-27T16:29:51.256Z,5.80
2023-03-27T16:32:19.644Z,5.40
2023-03-27T16:34:52.752Z,8.80
2023-03-27T16:37:21.736Z,6.90
2023-03-27T16:39:49.612Z,9.40
2023-03-27T16:42:17.807Z,6.00
2023-03-27T16:44:45.139Z,9.00
2023-03-27T16:47:13.432Z,6.90
2023-03-27T16:49:40.670Z,9.70
2023-03-27T16:52:09.366Z,11.70
2023-03-27T16:54:37.119Z,8.80
2023-03-27T16:57:04.414Z,12.00
2023-03-27T16:59:32.086Z,11.50
2023-03-27T17:02:00.145Z,8.60
2023-03-27T17:04:28.012Z,8.90
2023-03-27T17:06:55.603Z,11.20
2023-03-27T17:09:22.921Z,11.10
2023-03-27T17:11:50.008Z,12.00
2023-03-27T17:16:01.345Z,9.80
2023-03-27T17:18:29.674Z,11.40
2023-03-27T17:20:58.236Z,9.60
2023-03-27T17:23:29.354Z,11.40
2023-03-27T17:26:03.057Z,9.60
2023-03-27T17:28:31.652Z,9.40
2023-03-27T17:31:04.551Z,11.60
2023-03-27T17:33:34.208Z,8.30
2023-03-27T17:36:08.799Z,8.70
2023-03-27T17:38:37.302Z,18.10
2023-03-27T17:41:07.473Z,14.50
2023-03-27T17:43:40.459Z,9.20
2023-03-27T17:46:08.761Z,12.00
2023-03-27T17:48:37.150Z,11.10
2023-03-27T17:53:39.187Z,10.10
2023-03-27T17:56:09.129Z,9.80
2023-03-27T17:58:38.125Z,8.00
2023-03-27T18:01:21.427Z,12.50
2023-03-27T18:03:50.463Z,10.20
2023-03-27T18:06:19.759Z,12.00
2023-03-27T18:08:48.337Z,10.00
2023-03-27T18:11:22.912Z,13.80
2023-03-27T18:13:53.637Z,9.00
2023-03-27T18:16:23.454Z,7.90
2023-03-27T18:18:55.386Z,8.90
2023-03-27T18:21:24.029Z,7.90
2023-03-27T18:23:59.762Z,8.70
2023-03-27T18:26:28.262Z,7.30
2023-03-27T18:29:04.052Z,9.50
2023-03-27T18:31:37.400Z,10.00
2023-03-27T18:34:08.210Z,11.50
2023-03-27T18:36:40.550Z,11.80
2023-03-27T18:39:08.918Z,9.80
2023-03-27T18:41:39.874Z,8.10
2023-03-27T18:44:08.349Z,8.70
2023-03-27T18:46:39.085Z,6.20
2023-03-27T18:49:21.440Z,10.90
2023-03-27T18:51:53.560Z,13.90
2023-03-27T18:54:22.256Z,15.10
2023-03-27T18:56:52.273Z,12.50
2023-03-27T18:59:20.901Z,9.80
2023-03-27T19:01:49.493Z,7.30
2023-03-27T19:04:20.788Z,5.80
2023-03-27T19:06:49.213Z,5.00
2023-03-27T19:09:18.698Z,6.10
2023-03-27T19:11:47.260Z,5.20
2023-03-27T19:14:41.856Z,5.60
2023-03-27T19:17:41.504Z,5.80
2023-03-27T19:20:28.941Z,5.40
2023-03-27T19:23:18.181Z,6.20
2023-03-27T19:25:51.468Z,6.50
2023-03-27T19:28:20.404Z,4.60
2023-03-27T19:30:51.993Z,5.40
2023-03-27T19:33:21.940Z,4.60
2023-03-27T19:35:52.779Z,5.20
2023-03-27T19:38:22.070Z,5.50
2023-03-27T19:40:52.884Z,6.40
2023-03-27T19:43:26.625Z,5.20
2023-03-27T19:46:08.394Z,4.00
2023-03-27T19:48:45.833Z,4.00
2023-03-27T19:51:23.032Z,5.10
2023-03-27T19:53:55.670Z,5.40
2023-03-27T19:56:26.725Z,3.70
2023-03-27T19:58:56.333Z,4.30
2023-03-27T20:01:28.673Z,6.50
2023-03-27T20:03:58.434Z,6.50
2023-03-27T20:06:29.069Z,6.50
2023-03-27T20:09:01.936Z,5.10
2023-03-27T20:11:30.414Z,5.80
2023-03-27T20:13:58.784Z,5.90
2023-03-27T20:16:28.097Z,4.40
2023-03-27T20:19:06.344Z,5.20
2023-03-27T20:21:39.900Z,6.00
2023-03-27T20:24:12.705Z,4.90
2023-03-27T20:26:43.215Z,5.50
2023-03-27T20:29:19.172Z,5.00
2023-03-27T20:31:48.506Z,6.30
2023-03-27T20:34:20.493Z,6.00
2023-03-27T20:36:53.415Z,9.00
2023-03-27T20:39:34.409Z,6.90
2023-03-27T20:42:02.938Z,5.20
2023-03-27T20:44:38.076Z,4.50
2023-03-27T20:47:11.411Z,9.90
2023-03-27T20:49:43.069Z,4.80
2023-03-27T20:52:14.311Z,8.40
2023-03-27T20:54:42.724Z,5.80
2023-03-27T20:57:12.498Z,6.60
2023-03-27T20:59:41.308Z,4.60
2023-03-27T21:02:15.132Z,4.80
2023-03-27T21:04:43.700Z,5.30
2023-03-27T21:07:12.301Z,5.70
2023-03-27T21:09:44.711Z,5.80
2023-03-27T21:12:13.049Z,5.60
2023-03-27T21:14:41.326Z,5.10
2023-03-27T21:17:14.132Z,5.00
2023-03-27T21:19:42.792Z,6.00
2023-03-27T21:26:45.572Z,5.60
2023-03-27T21:29:17.745Z,4.80
2023-03-27T21:31:47.100Z,6.90
2023-03-27T21:34:15.892Z,5.20
2023-03-27T21:36:44.401Z,5.00
2023-03-27T21:39:12.896Z,4.40
2023-03-27T21:41:41.316Z,4.90
2023-03-27T21:44:11.144Z,5.00
2023-03-27T21:46:39.968Z,8.10
2023-03-27T21:49:08.638Z,7.40
2023-03-27T21:51:37.447Z,8.30
2023-03-27T21:54:12.033Z,5.30
2023-03-27T21:56:41.471Z,5.40
2023-03-27T21:59:10.492Z,10.30
2023-03-27T22:01:40.999Z,5.70
2023-03-27T22:04:09.820Z,8.20
2023-03-27T22:06:38.812Z,7.40
2023-03-27T22:09:08.869Z,7.20
2023-03-27T22:11:37.298Z,9.40
2023-03-27T22:14:10.674Z,6.40
2023-03-27T22:16:41.280Z,6.10
2023-03-27T22:19:11.076Z,5.10
2023-03-27T22:21:41.894Z,9.30
2023-03-27T22:24:10.215Z,5.70
2023-03-27T22:26:39.492Z,3.40
2023-03-27T22:29:14.155Z,4.20
2023-03-27T22:31:44.014Z,6.10
2023-03-27T22:34:12.554Z,5.40
2023-03-27T22:36:41.856Z,4.00
2023-03-27T22:39:10.334Z,7.30
2023-03-27T22:41:39.262Z,4.60
2023-03-27T22:44:08.524Z,4.00
2023-03-27T22:46:38.063Z,5.50
2023-03-27T22:49:06.870Z,4.20
2023-03-27T22:51:35.934Z,4.50
2023-03-27T22:54:11.298Z,3.70
2023-03-27T22:56:39.850Z,6.80
2023-03-27T22:59:09.049Z,3.90
2023-03-27T23:01:38.154Z,4.00
2023-03-27T23:04:06.940Z,5.00
2023-03-27T23:06:35.746Z,4.20
2023-03-27T23:09:04.614Z,3.80
2023-03-27T23:11:33.193Z,5.10
2023-03-27T23:14:04.844Z,5.80
2023-03-27T23:16:33.858Z,4.00
2023-03-27T23:19:02.636Z,4.80
2023-03-27T23:21:31.164Z,4.80
2023-03-27T23:23:59.593Z,4.20
2023-03-27T23:26:28.049Z,4.90
2023-03-27T23:28:56.315Z,4.50
2023-03-27T23:31:24.888Z,4.00
2023-03-27T23:33:53.530Z,3.80
2023-03-27T23:36:23.561Z,3.50
2023-03-27T23:38:53.281Z,3.80
2023-03-27T23:41:21.772Z,4.70
2023-03-27T23:43:50.213Z,4.30
2023-03-27T23:46:20.683Z,4.40
2023-03-27T23:48:49.206Z,4.30
2023-03-27T23:51:17.720Z,3.90
2023-03-27T23:53:49.479Z,5.40
2023-03-27T23:56:18.049Z,3.50
2023-03-27T23:58:46.657Z,3.90
